Hauptseite
METAR-TAF:

METAR-TAF

Flughäfen :

Fliegerhorst Büchel

Büchel, Deutschland

Breite: 50-10N, Länge: 007-04E, Höhe: 478 m

Beobachtung

Neuester Wetterbericht von vor 16 Minuten, um 11:20 UTC
Wind 14 kt aus Südwest
Temperatur 24°C
Luftfeuchtigkeit 50%
Luftdruck 1020 hPa
Sichtweite 10 km oder mehr
Leicht bewölkt in der Höhe von 3000 ft

METAR: ETSB 191120Z 23014KT 9999 FEW030 24/13 Q1020 BLU+BLU+

Zeit: 13:36 (11:36 UTC)

Prognose

Neuester Wetterbericht von vor 54 Minuten, um 10:42 UTC
Gültige Prognose vom 19 um 11 UTC bis 19 um 20 UTC
Wind 10 kt aus Südwest, Böen bis zu 20 kt
Sichtweite 10 km oder mehr
Leicht bewölkt in der Höhe von 3000 ft

TAF: ETSB 191042Z 1911/1920 23010G20KT 9999 NSW FEW030 BY ETGL

Wetterbeobachtungen und Prognosen von mehr als 4000 Flughäfen (METAR und TAF Bericht).

Die verfügbaren Stationen werden durch gelbe und rote Markierungen auf der Karte dargestellt.

Führen Sie die Maus auf sie, um den Namen der Station zu sehen.

Darauf klicken, um die Beobachtung von Wetterbeobachtungen und Prognosen zu sehen.

Um die Karte zu ändern : klicken Sie auf den grünen Tasten mit einem schwarzen Kreuz Zum Vergrößern, auf den grünen Button mit einem Gedankenstrich zu verkleinern, oder auf die grünen Pfeile für benachbarte Karten.


METAR-TAF: